sensor_id;sensor_type;location;lat;lon;timestamp;pressure;altitude;pressure_sealevel;temperature;humidity
56402;BME280;42299;35.160;26.100;2022-10-18T00:00:56;101737.25;;;19.40;100.00
56402;BME280;42299;35.160;26.100;2022-10-18T00:02:20;101739.00;;;19.43;100.00
56402;BME280;42299;35.160;26.100;2022-10-18T00:03:41;101739.00;;;19.44;100.00
56402;BME280;42299;35.160;26.100;2022-10-18T00:05:04;101743.47;;;19.44;100.00
56402;BME280;42299;35.160;26.100;2022-10-18T00:06:25;101739.94;;;19.42;100.00
56402;BME280;42299;35.160;26.100;2022-10-18T00:07:48;101744.41;;;19.41;100.00
56402;BME280;42299;35.160;26.100;2022-10-18T00:09:09;101733.69;;;19.40;100.00
56402;BME280;42299;35.160;26.100;2022-10-18T00:10:32;101731.91;;;19.40;100.00
56402;BME280;42299;35.160;26.100;2022-10-18T00:11:55;101729.25;;;19.36;100.00
56402;BME280;42299;35.160;26.100;2022-10-18T00:13:17;101729.25;;;19.31;100.00
56402;BME280;42299;35.160;26.100;2022-10-18T00:14:40;101731.06;;;19.29;100.00
56402;BME280;42299;35.160;26.100;2022-10-18T00:16:07;101718.59;;;19.27;100.00
56402;BME280;42299;35.160;26.100;2022-10-18T00:17:32;101721.25;;;19.25;100.00
56402;BME280;42299;35.160;26.100;2022-10-18T00:18:55;101717.72;;;19.22;100.00
56402;BME280;42299;35.160;26.100;2022-10-18T00:20:18;101724.84;;;19.20;100.00
56402;BME280;42299;35.160;26.100;2022-10-18T00:21:40;101722.19;;;19.18;100.00
56402;BME280;42299;35.160;26.100;2022-10-18T00:23:04;101715.94;;;19.19;100.00
56402;BME280;42299;35.160;26.100;2022-10-18T00:24:26;101715.03;;;19.22;100.00
56402;BME280;42299;35.160;26.100;2022-10-18T00:25:56;101713.22;;;19.24;100.00
56402;BME280;42299;35.160;26.100;2022-10-18T00:27:18;101717.69;;;19.26;100.00
56402;BME280;42299;35.160;26.100;2022-10-18T00:28:42;101713.22;;;19.27;100.00
56402;BME280;42299;35.160;26.100;2022-10-18T00:30:04;101716.78;;;19.29;100.00
56402;BME280;42299;35.160;26.100;2022-10-18T00:31:28;101717.66;;;19.31;100.00
56402;BME280;42299;35.160;26.100;2022-10-18T00:32:53;101723.00;;;19.31;100.00
56402;BME280;42299;35.160;26.100;2022-10-18T00:34:16;101716.75;;;19.32;100.00
56402;BME280;42299;35.160;26.100;2022-10-18T00:35:38;101712.31;;;19.32;100.00
56402;BME280;42299;35.160;26.100;2022-10-18T00:36:59;101708.72;;;19.30;100.00
56402;BME280;42299;35.160;26.100;2022-10-18T00:38:22;101713.22;;;19.28;100.00
56402;BME280;42299;35.160;26.100;2022-10-18T00:39:43;101710.53;;;19.24;100.00
56402;BME280;42299;35.160;26.100;2022-10-18T00:41:07;101707.91;;;19.21;100.00
56402;BME280;42299;35.160;26.100;2022-10-18T00:42:31;101707.00;;;19.17;100.00
56402;BME280;42299;35.160;26.100;2022-10-18T00:43:57;101704.38;;;19.16;100.00
56402;BME280;42299;35.160;26.100;2022-10-18T00:45:20;101699.91;;;19.15;100.00
56402;BME280;42299;35.160;26.100;2022-10-18T00:46:45;101695.44;;;19.15;100.00
56402;BME280;42299;35.160;26.100;2022-10-18T00:48:09;101701.69;;;19.16;100.00
56402;BME280;42299;35.160;26.100;2022-10-18T00:49:35;101702.53;;;19.18;100.00
56402;BME280;42299;35.160;26.100;2022-10-18T00:50:57;101700.75;;;19.18;100.00
56402;BME280;42299;35.160;26.100;2022-10-18T00:52:25;101698.97;;;19.19;100.00
56402;BME280;42299;35.160;26.100;2022-10-18T00:53:47;101701.66;;;19.20;100.00
56402;BME280;42299;35.160;26.100;2022-10-18T00:55:11;101703.41;;;19.24;100.00
56402;BME280;42299;35.160;26.100;2022-10-18T00:56:35;101699.81;;;19.31;100.00
56402;BME280;42299;35.160;26.100;2022-10-18T00:57:57;101700.69;;;19.32;100.00
56402;BME280;42299;35.160;26.100;2022-10-18T00:59:20;101706.06;;;19.33;100.00
56402;BME280;42299;35.160;26.100;2022-10-18T01:00:43;101693.56;;;19.31;100.00
56402;BME280;42299;35.160;26.100;2022-10-18T01:02:06;101706.09;;;19.29;100.00
56402;BME280;42299;35.160;26.100;2022-10-18T01:03:29;101693.59;;;19.26;100.00
56402;BME280;42299;35.160;26.100;2022-10-18T01:04:52;101699.88;;;19.22;100.00
56402;BME280;42299;35.160;26.100;2022-10-18T01:06:13;101692.72;;;19.20;100.00
56402;BME280;42299;35.160;26.100;2022-10-18T01:07:53;101688.28;;;19.20;100.00
56402;BME280;42299;35.160;26.100;2022-10-18T01:09:25;101682.03;;;19.17;100.00
56402;BME280;42299;35.160;26.100;2022-10-18T01:10:59;101697.22;;;19.16;100.00
56402;BME280;42299;35.160;26.100;2022-10-18T01:12:31;101689.19;;;19.13;100.00
56402;BME280;42299;35.160;26.100;2022-10-18T01:14:01;101684.72;;;19.12;100.00
56402;BME280;42299;35.160;26.100;2022-10-18T01:15:28;101686.50;;;19.11;100.00
56402;BME280;42299;35.160;26.100;2022-10-18T01:16:55;101687.41;;;19.12;100.00
56402;BME280;42299;35.160;26.100;2022-10-18T01:18:24;101683.84;;;19.10;100.00
56402;BME280;42299;35.160;26.100;2022-10-18T01:21:53;101680.25;;;19.13;100.00
56402;BME280;42299;35.160;26.100;2022-10-18T01:23:21;101684.72;;;19.14;100.00
56402;BME280;42299;35.160;26.100;2022-10-18T01:24:58;101679.38;;;19.12;100.00
56402;BME280;42299;35.160;26.100;2022-10-18T01:26:35;101683.84;;;19.11;100.00
56402;BME280;42299;35.160;26.100;2022-10-18T01:28:08;101677.63;;;19.09;100.00
56402;BME280;42299;35.160;26.100;2022-10-18T01:29:44;101682.97;;;19.06;100.00
56402;BME280;42299;35.160;26.100;2022-10-18T01:31:14;101685.66;;;19.05;100.00
56402;BME280;42299;35.160;26.100;2022-10-18T01:32:41;101683.88;;;19.04;100.00
56402;BME280;42299;35.160;26.100;2022-10-18T01:34:07;101684.75;;;19.04;100.00
56402;BME280;42299;35.160;26.100;2022-10-18T01:35:33;101682.97;;;19.05;100.00
56402;BME280;42299;35.160;26.100;2022-10-18T01:36:58;101680.28;;;19.05;100.00
56402;BME280;42299;35.160;26.100;2022-10-18T01:38:23;101674.06;;;19.07;100.00
56402;BME280;42299;35.160;26.100;2022-10-18T01:39:47;101680.28;;;19.09;100.00
56402;BME280;42299;35.160;26.100;2022-10-18T01:41:11;101683.84;;;19.13;100.00
56402;BME280;42299;35.160;26.100;2022-10-18T01:42:34;101677.59;;;19.13;100.00
56402;BME280;42299;35.160;26.100;2022-10-18T01:43:58;101679.38;;;19.14;100.00
56402;BME280;42299;35.160;26.100;2022-10-18T01:45:23;101674.91;;;19.14;100.00
56402;BME280;42299;35.160;26.100;2022-10-18T01:46:47;101682.03;;;19.17;100.00
56402;BME280;42299;35.160;26.100;2022-10-18T01:48:11;101676.66;;;19.17;100.00
56402;BME280;42299;35.160;26.100;2022-10-18T01:49:33;101674.00;;;19.20;100.00
56402;BME280;42299;35.160;26.100;2022-10-18T01:50:55;101684.69;;;19.23;100.00
56402;BME280;42299;35.160;26.100;2022-10-18T01:52:17;101677.53;;;19.25;100.00
56402;BME280;42299;35.160;26.100;2022-10-18T01:53:39;101676.63;;;19.26;100.00
56402;BME280;42299;35.160;26.100;2022-10-18T01:55:02;101673.94;;;19.27;100.00
56402;BME280;42299;35.160;26.100;2022-10-18T01:56:36;101673.06;;;19.28;100.00
56402;BME280;42299;35.160;26.100;2022-10-18T01:58:05;101681.06;;;19.30;100.00
56402;BME280;42299;35.160;26.100;2022-10-18T01:59:38;101680.16;;;19.31;100.00
56402;BME280;42299;35.160;26.100;2022-10-18T02:01:08;101674.81;;;19.32;100.00
56402;BME280;42299;35.160;26.100;2022-10-18T02:02:40;101670.34;;;19.33;100.00
56402;BME280;42299;35.160;26.100;2022-10-18T02:04:11;101672.13;;;19.34;100.00
56402;BME280;42299;35.160;26.100;2022-10-18T02:05:43;101676.59;;;19.32;100.00
56402;BME280;42299;35.160;26.100;2022-10-18T02:07:13;101680.19;;;19.29;100.00
56402;BME280;42299;35.160;26.100;2022-10-18T02:08:39;101673.06;;;19.25;100.00
56402;BME280;42299;35.160;26.100;2022-10-18T02:10:08;101669.53;;;19.22;100.00
56402;BME280;42299;35.160;26.100;2022-10-18T02:11:32;101674.88;;;19.20;100.00
56402;BME280;42299;35.160;26.100;2022-10-18T02:12:58;101674.88;;;19.17;100.00
56402;BME280;42299;35.160;26.100;2022-10-18T02:14:22;101672.22;;;19.16;100.00
56402;BME280;42299;35.160;26.100;2022-10-18T02:15:49;101670.41;;;19.18;100.00
56402;BME280;42299;35.160;26.100;2022-10-18T02:17:13;101674.00;;;19.20;100.00
56402;BME280;42299;35.160;26.100;2022-10-18T02:18:41;101665.94;;;19.21;100.00
56402;BME280;42299;35.160;26.100;2022-10-18T02:20:07;101672.19;;;19.20;100.00
56402;BME280;42299;35.160;26.100;2022-10-18T02:21:31;101664.16;;;19.20;100.00
56402;BME280;42299;35.160;26.100;2022-10-18T02:22:54;101668.63;;;19.20;100.00
56402;BME280;42299;35.160;26.100;2022-10-18T02:24:18;101666.84;;;19.19;100.00
56402;BME280;42299;35.160;26.100;2022-10-18T02:25:42;101665.06;;;19.21;100.00
56402;BME280;42299;35.160;26.100;2022-10-18T02:27:05;101674.84;;;19.23;100.00
56402;BME280;42299;35.160;26.100;2022-10-18T02:28:27;101664.13;;;19.25;100.00
56402;BME280;42299;35.160;26.100;2022-10-18T02:29:50;101665.03;;;19.25;100.00
56402;BME280;42299;35.160;26.100;2022-10-18T02:31:13;101672.19;;;19.22;100.00
56402;BME280;42299;35.160;26.100;2022-10-18T02:32:40;101670.38;;;19.24;100.00
56402;BME280;42299;35.160;26.100;2022-10-18T02:34:13;101675.75;;;19.28;100.00
56402;BME280;42299;35.160;26.100;2022-10-18T02:35:41;101673.91;;;19.32;100.00
56402;BME280;42299;35.160;26.100;2022-10-18T02:37:07;101675.69;;;19.36;100.00
56402;BME280;42299;35.160;26.100;2022-10-18T02:38:30;101664.06;;;19.38;100.00
56402;BME280;42299;35.160;26.100;2022-10-18T02:39:53;101660.50;;;19.39;100.00
56402;BME280;42299;35.160;26.100;2022-10-18T02:41:21;101656.03;;;19.40;100.00
56402;BME280;42299;35.160;26.100;2022-10-18T02:42:45;101663.16;;;19.41;100.00
56402;BME280;42299;35.160;26.100;2022-10-18T02:44:09;101668.47;;;19.44;100.00
56402;BME280;42299;35.160;26.100;2022-10-18T02:45:31;101672.09;;;19.46;100.00
56402;BME280;42299;35.160;26.100;2022-10-18T02:46:54;101672.09;;;19.47;100.00
56402;BME280;42299;35.160;26.100;2022-10-18T02:48:15;101671.16;;;19.50;100.00
56402;BME280;42299;35.160;26.100;2022-10-18T02:49:39;101671.16;;;19.53;100.00
56402;BME280;42299;35.160;26.100;2022-10-18T02:51:02;101672.94;;;19.54;100.00
56402;BME280;42299;35.160;26.100;2022-10-18T02:52:23;101662.22;;;19.56;100.00
56402;BME280;42299;35.160;26.100;2022-10-18T02:53:46;101677.34;;;19.57;100.00
56402;BME280;42299;35.160;26.100;2022-10-18T02:55:08;101681.81;;;19.58;100.00
56402;BME280;42299;35.160;26.100;2022-10-18T02:56:31;101674.69;;;19.57;100.00
56402;BME280;42299;35.160;26.100;2022-10-18T02:57:52;101676.47;;;19.58;100.00
56402;BME280;42299;35.160;26.100;2022-10-18T02:59:15;101676.47;;;19.58;100.00
56402;BME280;42299;35.160;26.100;2022-10-18T03:00:36;101682.75;;;19.55;100.00
56402;BME280;42299;35.160;26.100;2022-10-18T03:01:58;101680.06;;;19.55;100.00
56402;BME280;42299;35.160;26.100;2022-10-18T03:03:20;101678.28;;;19.54;100.00
56402;BME280;42299;35.160;26.100;2022-10-18T03:04:44;101672.03;;;19.54;100.00
56402;BME280;42299;35.160;26.100;2022-10-18T03:06:06;101674.72;;;19.52;100.00
56402;BME280;42299;35.160;26.100;2022-10-18T03:07:28;101677.41;;;19.52;100.00
56402;BME280;42299;35.160;26.100;2022-10-18T03:08:50;101672.94;;;19.53;100.00
56402;BME280;42299;35.160;26.100;2022-10-18T03:10:12;101677.41;;;19.54;100.00
56402;BME280;42299;35.160;26.100;2022-10-18T03:11:34;101673.78;;;19.56;100.00
56402;BME280;42299;35.160;26.100;2022-10-18T03:12:57;101676.47;;;19.58;100.00
56402;BME280;42299;35.160;26.100;2022-10-18T03:14:18;101679.13;;;19.59;100.00
56402;BME280;42299;35.160;26.100;2022-10-18T03:15:40;101675.56;;;19.59;100.00
56402;BME280;42299;35.160;26.100;2022-10-18T03:17:02;101682.72;;;19.61;100.00
56402;BME280;42299;35.160;26.100;2022-10-18T03:18:25;101683.56;;;19.63;100.00
56402;BME280;42299;35.160;26.100;2022-10-18T03:19:49;101676.41;;;19.64;100.00
56402;BME280;42299;35.160;26.100;2022-10-18T03:21:12;101679.09;;;19.65;100.00
56402;BME280;42299;35.160;26.100;2022-10-18T03:22:33;101674.63;;;19.64;100.00
56402;BME280;42299;35.160;26.100;2022-10-18T03:23:55;101672.00;;;19.61;100.00
56402;BME280;42299;35.160;26.100;2022-10-18T03:25:18;101678.25;;;19.59;100.00
56402;BME280;42299;35.160;26.100;2022-10-18T03:26:41;101680.03;;;19.57;100.00
56402;BME280;42299;35.160;26.100;2022-10-18T03:28:04;101672.03;;;19.55;100.00
56402;BME280;42299;35.160;26.100;2022-10-18T03:29:25;101667.56;;;19.54;100.00
56402;BME280;42299;35.160;26.100;2022-10-18T03:30:47;101673.84;;;19.50;100.00
56402;BME280;42299;35.160;26.100;2022-10-18T03:32:10;101667.63;;;19.46;100.00
56402;BME280;42299;35.160;26.100;2022-10-18T03:33:32;101661.34;;;19.43;100.00
56402;BME280;42299;35.160;26.100;2022-10-18T03:34:56;101671.19;;;19.38;100.00
56402;BME280;42299;35.160;26.100;2022-10-18T03:36:19;101669.44;;;19.35;100.00
56402;BME280;42299;35.160;26.100;2022-10-18T03:37:41;101668.56;;;19.35;100.00
56402;BME280;42299;35.160;26.100;2022-10-18T03:39:02;101666.78;;;19.35;100.00
56402;BME280;42299;35.160;26.100;2022-10-18T03:40:25;101666.75;;;19.37;100.00
56402;BME280;42299;35.160;26.100;2022-10-18T03:41:46;101671.19;;;19.39;100.00
56402;BME280;42299;35.160;26.100;2022-10-18T03:43:09;101665.84;;;19.41;100.00
56402;BME280;42299;35.160;26.100;2022-10-18T03:44:30;101660.44;;;19.44;100.00
56402;BME280;42299;35.160;26.100;2022-10-18T03:45:52;101675.66;;;19.48;100.00
56402;BME280;42299;35.160;26.100;2022-10-18T03:47:15;101669.38;;;19.50;100.00
56402;BME280;42299;35.160;26.100;2022-10-18T03:48:37;101684.53;;;19.53;100.00
56402;BME280;42299;35.160;26.100;2022-10-18T03:50:00;101671.16;;;19.55;100.00
56402;BME280;42299;35.160;26.100;2022-10-18T03:51:23;101669.34;;;19.54;100.00
56402;BME280;42299;35.160;26.100;2022-10-18T03:52:44;101675.63;;;19.54;100.00
56402;BME280;42299;35.160;26.100;2022-10-18T03:54:07;101682.75;;;19.55;100.00
56402;BME280;42299;35.160;26.100;2022-10-18T03:55:28;101672.94;;;19.56;100.00
56402;BME280;42299;35.160;26.100;2022-10-18T03:56:50;101675.59;;;19.56;100.00
56402;BME280;42299;35.160;26.100;2022-10-18T03:58:13;101680.03;;;19.57;100.00
56402;BME280;42299;35.160;26.100;2022-10-18T03:59:34;101676.47;;;19.56;100.00
56402;BME280;42299;35.160;26.100;2022-10-18T04:00:57;101676.47;;;19.56;100.00
56402;BME280;42299;35.160;26.100;2022-10-18T04:02:19;101677.34;;;19.57;100.00
56402;BME280;42299;35.160;26.100;2022-10-18T04:03:40;101671.09;;;19.56;100.00
56402;BME280;42299;35.160;26.100;2022-10-18T04:05:06;101673.78;;;19.56;100.00
56402;BME280;42299;35.160;26.100;2022-10-18T04:06:27;101673.78;;;19.56;100.00
56402;BME280;42299;35.160;26.100;2022-10-18T04:07:49;101667.56;;;19.56;100.00
56402;BME280;42299;35.160;26.100;2022-10-18T04:09:12;101667.56;;;19.56;100.00
56402;BME280;42299;35.160;26.100;2022-10-18T04:10:36;101672.00;;;19.58;100.00
56402;BME280;42299;35.160;26.100;2022-10-18T04:11:59;101670.22;;;19.57;100.00
56402;BME280;42299;35.160;26.100;2022-10-18T04:13:21;101664.84;;;19.59;100.00
56402;BME280;42299;35.160;26.100;2022-10-18T04:14:44;101683.59;;;19.60;100.00
56402;BME280;42299;35.160;26.100;2022-10-18T04:16:07;101683.59;;;19.62;100.00
56402;BME280;42299;35.160;26.100;2022-10-18T04:17:28;101681.81;;;19.62;100.00
56402;BME280;42299;35.160;26.100;2022-10-18T04:18:51;101684.47;;;19.64;100.00
56402;BME280;42299;35.160;26.100;2022-10-18T04:20:15;101680.88;;;19.65;100.00
56402;BME280;42299;35.160;26.100;2022-10-18T04:21:36;101683.56;;;19.65;100.00
56402;BME280;42299;35.160;26.100;2022-10-18T04:22:59;101680.00;;;19.66;100.00
56402;BME280;42299;35.160;26.100;2022-10-18T04:24:21;101671.06;;;19.65;100.00
56402;BME280;42299;35.160;26.100;2022-10-18T04:25:43;101670.16;;;19.66;100.00
56402;BME280;42299;35.160;26.100;2022-10-18T04:27:06;101688.03;;;19.66;100.00
56402;BME280;42299;35.160;26.100;2022-10-18T04:28:29;101680.88;;;19.66;100.00
56402;BME280;42299;35.160;26.100;2022-10-18T04:29:52;101689.81;;;19.65;100.00
56402;BME280;42299;35.160;26.100;2022-10-18T04:31:13;101692.53;;;19.62;100.00
56402;BME280;42299;35.160;26.100;2022-10-18T04:32:36;101696.09;;;19.61;100.00
56402;BME280;42299;35.160;26.100;2022-10-18T04:33:57;101692.53;;;19.59;100.00
56402;BME280;42299;35.160;26.100;2022-10-18T04:35:21;101696.09;;;19.61;100.00
56402;BME280;42299;35.160;26.100;2022-10-18T04:36:45;101705.94;;;19.62;100.00
56402;BME280;42299;35.160;26.100;2022-10-18T04:38:07;101697.88;;;19.62;100.00
56402;BME280;42299;35.160;26.100;2022-10-18T04:39:30;101703.25;;;19.62;100.00
56402;BME280;42299;35.160;26.100;2022-10-18T04:40:51;101706.81;;;19.61;100.00
56402;BME280;42299;35.160;26.100;2022-10-18T04:42:14;101702.34;;;19.60;100.00
56402;BME280;42299;35.160;26.100;2022-10-18T04:43:36;101705.03;;;19.60;100.00
56402;BME280;42299;35.160;26.100;2022-10-18T04:44:58;101710.34;;;19.63;100.00
56402;BME280;42299;35.160;26.100;2022-10-18T04:46:20;101705.88;;;19.65;100.00
56402;BME280;42299;35.160;26.100;2022-10-18T04:47:42;101711.25;;;19.68;100.00
56402;BME280;42299;35.160;26.100;2022-10-18T04:49:05;101710.31;;;19.71;100.00
56402;BME280;42299;35.160;26.100;2022-10-18T04:50:30;101712.09;;;19.73;100.00
56402;BME280;42299;35.160;26.100;2022-10-18T04:51:52;101700.44;;;19.76;100.00
56402;BME280;42299;35.160;26.100;2022-10-18T04:53:15;101707.59;;;19.77;100.00
56402;BME280;42299;35.160;26.100;2022-10-18T04:54:38;101690.63;;;19.78;100.00
56402;BME280;42299;35.160;26.100;2022-10-18T04:55:59;101693.28;;;19.78;100.00
56402;BME280;42299;35.160;26.100;2022-10-18T04:57:22;101697.75;;;19.79;100.00
56402;BME280;42299;35.160;26.100;2022-10-18T04:58:45;101709.38;;;19.79;100.00
56402;BME280;42299;35.160;26.100;2022-10-18T05:00:08;101704.00;;;19.81;100.00
56402;BME280;42299;35.160;26.100;2022-10-18T05:01:31;101704.91;;;19.81;100.00
56402;BME280;42299;35.160;26.100;2022-10-18T05:02:55;101706.66;;;19.82;100.00
56402;BME280;42299;35.160;26.100;2022-10-18T05:04:17;101710.22;;;19.84;100.00
56402;BME280;42299;35.160;26.100;2022-10-18T05:05:42;101705.75;;;19.86;100.00
56402;BME280;42299;35.160;26.100;2022-10-18T05:07:05;101710.22;;;19.87;100.00
56402;BME280;42299;35.160;26.100;2022-10-18T05:08:28;101712.84;;;19.90;100.00
56402;BME280;42299;35.160;26.100;2022-10-18T05:09:49;101714.63;;;19.92;100.00
56402;BME280;42299;35.160;26.100;2022-10-18T05:11:12;101715.53;;;19.95;100.00
56402;BME280;42299;35.160;26.100;2022-10-18T05:12:33;101708.34;;;19.96;100.00
56402;BME280;42299;35.160;26.100;2022-10-18T05:13:55;101714.59;;;19.99;100.00
56402;BME280;42299;35.160;26.100;2022-10-18T05:15:18;101726.16;;;20.03;100.00
56402;BME280;42299;35.160;26.100;2022-10-18T05:16:40;101711.84;;;20.05;100.00
56402;BME280;42299;35.160;26.100;2022-10-18T05:18:03;101717.19;;;20.08;100.00
56402;BME280;42299;35.160;26.100;2022-10-18T05:19:26;101710.00;;;20.10;100.00
56402;BME280;42299;35.160;26.100;2022-10-18T05:20:50;101709.09;;;20.13;100.00
56402;BME280;42299;35.160;26.100;2022-10-18T05:22:12;101710.91;;;20.14;100.00
56402;BME280;42299;35.160;26.100;2022-10-18T05:23:35;101709.06;;;20.16;100.00
56402;BME280;42299;35.160;26.100;2022-10-18T05:24:57;101709.94;;;20.18;100.00
56402;BME280;42299;35.160;26.100;2022-10-18T05:26:20;101718.88;;;20.18;100.00
56402;BME280;42299;35.160;26.100;2022-10-18T05:27:42;101706.38;;;20.20;100.00
56402;BME280;42299;35.160;26.100;2022-10-18T05:29:05;101716.19;;;20.21;100.00
56402;BME280;42299;35.160;26.100;2022-10-18T05:30:28;101706.31;;;20.23;100.00
56402;BME280;42299;35.160;26.100;2022-10-18T05:31:50;101709.88;;;20.25;100.00
56402;BME280;42299;35.160;26.100;2022-10-18T05:33:12;101715.25;;;20.27;100.00
56402;BME280;42299;35.160;26.100;2022-10-18T05:34:35;101709.00;;;20.25;100.00
56402;BME280;42299;35.160;26.100;2022-10-18T05:35:59;101718.81;;;20.26;100.00
56402;BME280;42299;35.160;26.100;2022-10-18T05:37:21;101725.97;;;20.27;100.00
56402;BME280;42299;35.160;26.100;2022-10-18T05:38:43;101729.50;;;20.32;100.00
56402;BME280;42299;35.160;26.100;2022-10-18T05:40:06;101733.94;;;20.39;100.00
56402;BME280;42299;35.160;26.100;2022-10-18T05:41:29;101734.78;;;20.43;100.00
56402;BME280;42299;35.160;26.100;2022-10-18T05:42:51;101732.09;;;20.46;100.00
56402;BME280;42299;35.160;26.100;2022-10-18T05:44:13;101727.63;;;20.46;100.00
56402;BME280;42299;35.160;26.100;2022-10-18T05:45:35;101730.28;;;20.48;100.00
56402;BME280;42299;35.160;26.100;2022-10-18T05:46:58;101726.72;;;20.47;100.00
56402;BME280;42299;35.160;26.100;2022-10-18T05:48:20;101724.00;;;20.49;100.00
56402;BME280;42299;35.160;26.100;2022-10-18T05:49:42;101730.25;;;20.49;100.00
56402;BME280;42299;35.160;26.100;2022-10-18T05:51:07;101727.56;;;20.51;100.00
56402;BME280;42299;35.160;26.100;2022-10-18T05:52:28;101725.78;;;20.51;100.00
56402;BME280;42299;35.160;26.100;2022-10-18T05:53:51;101730.19;;;20.55;100.00
56402;BME280;42299;35.160;26.100;2022-10-18T05:55:14;101731.97;;;20.59;100.00
56402;BME280;42299;35.160;26.100;2022-10-18T05:56:37;101734.63;;;20.61;100.00
56402;BME280;42299;35.160;26.100;2022-10-18T05:57:59;101736.38;;;20.62;100.00
56402;BME280;42299;35.160;26.100;2022-10-18T05:59:21;101733.69;;;20.66;100.00
56402;BME280;42299;35.160;26.100;2022-10-18T06:00:44;101734.53;;;20.68;100.00
56402;BME280;42299;35.160;26.100;2022-10-18T06:02:08;101740.78;;;20.72;100.00
56402;BME280;42299;35.160;26.100;2022-10-18T06:03:31;101745.25;;;20.73;100.00
56402;BME280;42299;35.160;26.100;2022-10-18T06:04:53;101739.88;;;20.73;100.00
56402;BME280;42299;35.160;26.100;2022-10-18T06:06:17;101744.34;;;20.74;100.00
56402;BME280;42299;35.160;26.100;2022-10-18T06:07:39;101732.66;;;20.75;100.00
56402;BME280;42299;35.160;26.100;2022-10-18T06:09:02;101735.41;;;20.74;100.00
56402;BME280;42299;35.160;26.100;2022-10-18T06:10:26;101740.72;;;20.77;100.00
56402;BME280;42299;35.160;26.100;2022-10-18T06:11:47;101740.69;;;20.80;100.00
56402;BME280;42299;35.160;26.100;2022-10-18T06:13:10;101746.84;;;20.88;100.00
56402;BME280;42299;35.160;26.100;2022-10-18T06:14:33;101741.38;;;20.97;100.00
56402;BME280;42299;35.160;26.100;2022-10-18T06:15:56;101746.75;;;20.98;100.00
56402;BME280;42299;35.160;26.100;2022-10-18T06:17:17;101753.91;;;20.99;100.00
56402;BME280;42299;35.160;26.100;2022-10-18T06:18:40;101757.44;;;21.01;100.00
56402;BME280;42299;35.160;26.100;2022-10-18T06:20:03;101757.41;;;21.04;100.00
56402;BME280;42299;35.160;26.100;2022-10-18T06:21:28;101755.63;;;21.05;100.00
56402;BME280;42299;35.160;26.100;2022-10-18T06:22:51;101754.66;;;21.07;100.00
56402;BME280;42299;35.160;26.100;2022-10-18T06:24:14;101750.13;;;21.14;100.00
56402;BME280;42299;35.160;26.100;2022-10-18T06:25:38;101753.69;;;21.19;100.00
56402;BME280;42299;35.160;26.100;2022-10-18T06:27:00;101747.34;;;21.26;100.00
56402;BME280;42299;35.160;26.100;2022-10-18T06:28:28;101745.50;;;21.28;100.00
56402;BME280;42299;35.160;26.100;2022-10-18T06:29:51;101748.16;;;21.31;100.00
56402;BME280;42299;35.160;26.100;2022-10-18T06:31:13;101749.94;;;21.32;100.00
56402;BME280;42299;35.160;26.100;2022-10-18T06:32:35;101749.91;;;21.34;100.00
56402;BME280;42299;35.160;26.100;2022-10-18T06:33:57;101753.41;;;21.40;100.00
56402;BME280;42299;35.160;26.100;2022-10-18T06:35:18;101751.56;;;21.45;100.00
56402;BME280;42299;35.160;26.100;2022-10-18T06:36:43;101743.47;;;21.47;100.00
56402;BME280;42299;35.160;26.100;2022-10-18T06:38:05;101752.47;;;21.44;100.00
56402;BME280;42299;35.160;26.100;2022-10-18T06:39:27;101755.25;;;21.38;100.00
56402;BME280;42299;35.160;26.100;2022-10-18T06:40:49;101745.38;;;21.39;100.00
56402;BME280;42299;35.160;26.100;2022-10-18T06:42:12;101753.38;;;21.43;100.00
56402;BME280;42299;35.160;26.100;2022-10-18T06:43:35;101753.31;;;21.48;100.00
56402;BME280;42299;35.160;26.100;2022-10-18T06:44:58;101765.81;;;21.51;100.00
56402;BME280;42299;35.160;26.100;2022-10-18T06:46:21;101756.84;;;21.52;100.00
56402;BME280;42299;35.160;26.100;2022-10-18T06:47:43;101760.38;;;21.55;100.00
56402;BME280;42299;35.160;26.100;2022-10-18T06:49:06;101762.13;;;21.59;100.00
56402;BME280;42299;35.160;26.100;2022-10-18T06:50:28;101763.78;;;21.66;100.00
56402;BME280;42299;35.160;26.100;2022-10-18T06:51:52;101756.47;;;21.79;100.00
56402;BME280;42299;35.160;26.100;2022-10-18T06:53:15;101767.75;;;22.05;100.00
56402;BME280;42299;35.160;26.100;2022-10-18T06:54:36;101756.72;;;22.22;100.00
56402;BME280;42299;35.160;26.100;2022-10-18T06:55:59;101763.69;;;22.34;100.00
56402;BME280;42299;35.160;26.100;2022-10-18T06:57:22;101765.34;;;22.41;100.00
56402;BME280;42299;35.160;26.100;2022-10-18T06:58:44;101761.72;;;22.45;100.00
56402;BME280;42299;35.160;26.100;2022-10-18T07:00:07;101763.56;;;22.41;100.00
56402;BME280;42299;35.160;26.100;2022-10-18T07:01:29;101764.47;;;22.39;100.00
56402;BME280;42299;35.160;26.100;2022-10-18T07:02:51;101761.88;;;22.34;100.00
56402;BME280;42299;35.160;26.100;2022-10-18T07:04:13;101760.09;;;22.35;100.00
56402;BME280;42299;35.160;26.100;2022-10-18T07:05:36;101762.66;;;22.41;100.00
56402;BME280;42299;35.160;26.100;2022-10-18T07:06:58;101764.41;;;22.45;100.00
56402;BME280;42299;35.160;26.100;2022-10-18T07:08:21;101761.72;;;22.45;100.00